sensor_id;sensor_type;location;lat;lon;timestamp;pressure;altitude;pressure_sealevel;temperature;humidity
64886;BME280;51514;52.206;5.114;2023-07-31T00:01:45;100958.19;;;24.20;59.70
64886;BME280;51514;52.206;5.114;2023-07-31T00:04:13;100942.72;;;24.19;59.43
64886;BME280;51514;52.206;5.114;2023-07-31T00:06:38;100948.22;;;24.19;59.53
64886;BME280;51514;52.206;5.114;2023-07-31T00:09:03;100950.16;;;24.19;59.53
64886;BME280;51514;52.206;5.114;2023-07-31T00:11:29;100955.66;;;24.19;59.67
64886;BME280;51514;52.206;5.114;2023-07-31T00:13:54;100942.13;;;24.17;59.67
64886;BME280;51514;52.206;5.114;2023-07-31T00:16:20;100931.09;;;24.17;59.51
64886;BME280;51514;52.206;5.114;2023-07-31T00:18:45;100930.25;;;24.17;59.79
64886;BME280;51514;52.206;5.114;2023-07-31T00:21:11;100934.94;;;24.16;59.68
64886;BME280;51514;52.206;5.114;2023-07-31T00:23:36;100931.34;;;24.16;59.46
64886;BME280;51514;52.206;5.114;2023-07-31T00:26:01;100930.50;;;24.15;59.43
64886;BME280;51514;52.206;5.114;2023-07-31T00:28:27;100937.94;;;24.15;59.45
64886;BME280;51514;52.206;5.114;2023-07-31T00:30:53;100926.91;;;24.15;59.67
64886;BME280;51514;52.206;5.114;2023-07-31T00:33:19;100919.72;;;24.14;59.52
64886;BME280;51514;52.206;5.114;2023-07-31T00:35:44;100914.47;;;24.12;59.56
64886;BME280;51514;52.206;5.114;2023-07-31T00:38:09;100918.88;;;24.13;59.70
64886;BME280;51514;52.206;5.114;2023-07-31T00:40:36;100917.22;;;24.12;59.69
64886;BME280;51514;52.206;5.114;2023-07-31T00:43:05;100933.75;;;24.12;59.55
64886;BME280;51514;52.206;5.114;2023-07-31T00:45:31;100927.44;;;24.12;59.62
64886;BME280;51514;52.206;5.114;2023-07-31T00:47:57;100916.41;;;24.12;59.78
64886;BME280;51514;52.206;5.114;2023-07-31T00:50:24;100915.56;;;24.11;59.28
64886;BME280;51514;52.206;5.114;2023-07-31T00:52:50;100929.34;;;24.11;59.59
64886;BME280;51514;52.206;5.114;2023-07-31T00:55:16;100926.00;;;24.09;59.54
64886;BME280;51514;52.206;5.114;2023-07-31T00:57:42;100933.41;;;24.09;59.60
64886;BME280;51514;52.206;5.114;2023-07-31T01:00:08;100926.84;;;24.10;59.72
64886;BME280;51514;52.206;5.114;2023-07-31T01:02:34;100937.00;;;24.09;59.83
64886;BME280;51514;52.206;5.114;2023-07-31T01:05:01;100924.06;;;24.10;59.44
64886;BME280;51514;52.206;5.114;2023-07-31T01:07:35;100931.97;;;24.06;59.82
64886;BME280;51514;52.206;5.114;2023-07-31T01:10:16;100920.38;;;24.04;59.69
64886;BME280;51514;52.206;5.114;2023-07-31T01:12:45;100920.97;;;24.06;59.79
64886;BME280;51514;52.206;5.114;2023-07-31T01:15:11;100925.41;;;24.07;59.84
64886;BME280;51514;52.206;5.114;2023-07-31T01:17:41;100917.38;;;24.06;59.66
64886;BME280;51514;52.206;5.114;2023-07-31T01:20:18;100911.03;;;24.05;59.46
64886;BME280;51514;52.206;5.114;2023-07-31T01:28:15;100914.84;;;24.04;59.61
64886;BME280;51514;52.206;5.114;2023-07-31T01:30:47;100914.84;;;24.04;59.75
64886;BME280;51514;52.206;5.114;2023-07-31T01:33:13;100904.13;;;23.91;59.80
64886;BME280;51514;52.206;5.114;2023-07-31T01:35:39;100900.50;;;24.02;59.73
64886;BME280;51514;52.206;5.114;2023-07-31T01:38:05;100909.88;;;24.01;59.45
64886;BME280;51514;52.206;5.114;2023-07-31T01:40:31;100910.66;;;24.01;59.54
64886;BME280;51514;52.206;5.114;2023-07-31T01:42:56;100913.44;;;24.01;59.55
64886;BME280;51514;52.206;5.114;2023-07-31T01:45:22;100920.88;;;24.01;59.50
64886;BME280;51514;52.206;5.114;2023-07-31T01:47:47;100913.69;;;24.00;59.78
64886;BME280;51514;52.206;5.114;2023-07-31T01:50:12;100913.69;;;24.00;59.56
64886;BME280;51514;52.206;5.114;2023-07-31T01:52:38;100907.13;;;24.01;59.77
64886;BME280;51514;52.206;5.114;2023-07-31T01:55:03;100897.16;;;24.00;59.71
64886;BME280;51514;52.206;5.114;2023-07-31T01:57:29;100895.50;;;23.99;59.52
64886;BME280;51514;52.206;5.114;2023-07-31T01:59:54;100887.22;;;23.99;59.71
64886;BME280;51514;52.206;5.114;2023-07-31T02:02:20;100885.56;;;23.98;59.62
64886;BME280;51514;52.206;5.114;2023-07-31T02:04:46;100877.28;;;23.98;59.61
64886;BME280;51514;52.206;5.114;2023-07-31T02:07:11;100878.13;;;23.98;59.40
64886;BME280;51514;52.206;5.114;2023-07-31T02:09:37;100873.69;;;23.97;59.68
64886;BME280;51514;52.206;5.114;2023-07-31T02:12:02;100859.94;;;23.97;59.68
64886;BME280;51514;52.206;5.114;2023-07-31T02:14:28;100861.84;;;23.97;59.72
64886;BME280;51514;52.206;5.114;2023-07-31T02:16:53;100861.84;;;23.97;59.40
64886;BME280;51514;52.206;5.114;2023-07-31T02:19:18;100851.91;;;23.96;59.47
64886;BME280;51514;52.206;5.114;2023-07-31T02:21:44;100855.50;;;23.96;59.64
64886;BME280;51514;52.206;5.114;2023-07-31T02:24:09;100848.31;;;23.95;59.91
64886;BME280;51514;52.206;5.114;2023-07-31T02:26:35;100850.22;;;23.95;59.84
64886;BME280;51514;52.206;5.114;2023-07-31T02:29:00;100853.00;;;23.95;59.64
64886;BME280;51514;52.206;5.114;2023-07-31T02:31:26;100862.09;;;23.95;59.63
64886;BME280;51514;52.206;5.114;2023-07-31T02:33:51;100863.16;;;23.94;59.66
64886;BME280;51514;52.206;5.114;2023-07-31T02:36:16;100862.31;;;23.94;59.77
64886;BME280;51514;52.206;5.114;2023-07-31T02:38:41;100853.22;;;23.93;59.57
64886;BME280;51514;52.206;5.114;2023-07-31T02:41:07;100857.91;;;23.93;59.72
64886;BME280;51514;52.206;5.114;2023-07-31T02:43:32;100855.16;;;23.93;59.60
64886;BME280;51514;52.206;5.114;2023-07-31T02:45:59;100833.34;;;23.91;59.70
64886;BME280;51514;52.206;5.114;2023-07-31T02:48:24;100843.03;;;23.94;59.70
64886;BME280;51514;52.206;5.114;2023-07-31T02:50:50;100835.03;;;23.92;59.49
64886;BME280;51514;52.206;5.114;2023-07-31T02:53:15;100836.09;;;23.91;59.63
64886;BME280;51514;52.206;5.114;2023-07-31T02:55:41;100833.34;;;23.91;59.78
64886;BME280;51514;52.206;5.114;2023-07-31T02:58:06;100832.50;;;23.91;59.79
64886;BME280;51514;52.206;5.114;2023-07-31T03:00:31;100834.44;;;23.90;59.80
64886;BME280;51514;52.206;5.114;2023-07-31T03:02:57;100828.13;;;23.90;59.74
64886;BME280;51514;52.206;5.114;2023-07-31T03:05:22;100830.03;;;23.89;59.81
64886;BME280;51514;52.206;5.114;2023-07-31T03:07:48;100841.06;;;23.89;59.85
64886;BME280;51514;52.206;5.114;2023-07-31T03:10:13;100827.53;;;23.88;59.53
64886;BME280;51514;52.206;5.114;2023-07-31T03:12:40;100833.03;;;23.88;59.78
64886;BME280;51514;52.206;5.114;2023-07-31T03:15:05;100834.72;;;23.89;59.54
64886;BME280;51514;52.206;5.114;2023-07-31T03:17:32;100827.53;;;23.88;59.60
64886;BME280;51514;52.206;5.114;2023-07-31T03:19:58;100830.28;;;23.88;59.52
64886;BME280;51514;52.206;5.114;2023-07-31T03:22:23;100836.88;;;23.87;59.77
64886;BME280;51514;52.206;5.114;2023-07-31T03:24:48;100828.00;;;23.85;59.55
64886;BME280;51514;52.206;5.114;2023-07-31T03:27:14;100835.19;;;23.86;59.74
64886;BME280;51514;52.206;5.114;2023-07-31T03:29:39;100824.19;;;23.86;59.83
64886;BME280;51514;52.206;5.114;2023-07-31T03:32:05;100824.19;;;23.86;59.90
64886;BME280;51514;52.206;5.114;2023-07-31T03:34:30;100835.19;;;23.86;59.72
64886;BME280;51514;52.206;5.114;2023-07-31T03:36:57;100834.34;;;23.85;59.64
64886;BME280;51514;52.206;5.114;2023-07-31T03:39:22;100830.75;;;23.85;59.56
64886;BME280;51514;52.206;5.114;2023-07-31T03:41:48;100830.75;;;23.85;59.70
64886;BME280;51514;52.206;5.114;2023-07-31T03:44:13;100824.41;;;23.84;59.95
64886;BME280;51514;52.206;5.114;2023-07-31T03:46:39;100815.31;;;23.84;59.78
64886;BME280;51514;52.206;5.114;2023-07-31T03:49:04;100820.81;;;23.84;59.70
64886;BME280;51514;52.206;5.114;2023-07-31T03:51:29;100821.91;;;23.83;59.89
64886;BME280;51514;52.206;5.114;2023-07-31T03:53:55;100811.97;;;23.82;59.92
64886;BME280;51514;52.206;5.114;2023-07-31T03:56:20;100810.88;;;23.83;59.63
64886;BME280;51514;52.206;5.114;2023-07-31T03:58:45;100799.03;;;23.82;59.65
64886;BME280;51514;52.206;5.114;2023-07-31T04:01:11;100798.19;;;23.82;59.80
64886;BME280;51514;52.206;5.114;2023-07-31T04:03:36;100799.28;;;23.81;59.58
64886;BME280;51514;52.206;5.114;2023-07-31T04:06:02;100796.53;;;23.81;59.83
64886;BME280;51514;52.206;5.114;2023-07-31T04:08:27;100798.44;;;23.80;59.83
64886;BME280;51514;52.206;5.114;2023-07-31T04:10:53;100786.59;;;23.80;59.49
64886;BME280;51514;52.206;5.114;2023-07-31T04:13:18;100775.56;;;23.80;59.64
64886;BME280;51514;52.206;5.114;2023-07-31T04:15:48;100777.78;;;23.78;59.61
64886;BME280;51514;52.206;5.114;2023-07-31T04:18:14;100762.91;;;23.79;59.56
64886;BME280;51514;52.206;5.114;2023-07-31T04:20:39;100762.91;;;23.79;59.86
64886;BME280;51514;52.206;5.114;2023-07-31T04:23:05;100772.25;;;23.78;59.88
64886;BME280;51514;52.206;5.114;2023-07-31T04:25:30;100767.84;;;23.77;59.86
64886;BME280;51514;52.206;5.114;2023-07-31T04:27:56;100772.25;;;23.78;59.80
64886;BME280;51514;52.206;5.114;2023-07-31T04:30:22;100781.59;;;23.77;59.81
64886;BME280;51514;52.206;5.114;2023-07-31T04:32:47;100781.59;;;23.77;59.88
64886;BME280;51514;52.206;5.114;2023-07-31T04:35:12;100783.75;;;23.75;59.73
64886;BME280;51514;52.206;5.114;2023-07-31T04:37:38;100773.59;;;23.75;60.02
64886;BME280;51514;52.206;5.114;2023-07-31T04:40:03;100774.41;;;23.76;59.91
64886;BME280;51514;52.206;5.114;2023-07-31T04:42:29;100774.66;;;23.74;60.08
64886;BME280;51514;52.206;5.114;2023-07-31T04:44:54;100773.59;;;23.75;59.62
64886;BME280;51514;52.206;5.114;2023-07-31T04:47:20;100772.75;;;23.75;59.77
64886;BME280;51514;52.206;5.114;2023-07-31T04:49:45;100774.66;;;23.74;60.06
64886;BME280;51514;52.206;5.114;2023-07-31T04:52:10;100762.81;;;23.74;59.76
64886;BME280;51514;52.206;5.114;2023-07-31T04:54:36;100753.72;;;23.73;59.94
64886;BME280;51514;52.206;5.114;2023-07-31T04:57:01;100757.31;;;23.74;59.77
64886;BME280;51514;52.206;5.114;2023-07-31T04:59:26;100748.44;;;23.72;59.72
64886;BME280;51514;52.206;5.114;2023-07-31T05:01:52;100746.53;;;23.72;59.88
64886;BME280;51514;52.206;5.114;2023-07-31T05:04:17;100758.38;;;23.73;59.76
64886;BME280;51514;52.206;5.114;2023-07-31T05:06:43;100743.19;;;23.70;59.63
64886;BME280;51514;52.206;5.114;2023-07-31T05:09:08;100748.44;;;23.72;60.02
64886;BME280;51514;52.206;5.114;2023-07-31T05:11:34;100744.88;;;23.71;59.91
64886;BME280;51514;52.206;5.114;2023-07-31T05:14:00;100742.34;;;23.70;59.70
64886;BME280;51514;52.206;5.114;2023-07-31T05:16:25;100735.19;;;23.69;59.99
64886;BME280;51514;52.206;5.114;2023-07-31T05:18:51;100733.53;;;23.68;60.05
64886;BME280;51514;52.206;5.114;2023-07-31T05:21:16;100741.78;;;23.68;59.96
64886;BME280;51514;52.206;5.114;2023-07-31T05:23:41;100740.94;;;23.67;60.25
64886;BME280;51514;52.206;5.114;2023-07-31T05:26:07;100728.03;;;23.68;59.95
64886;BME280;51514;52.206;5.114;2023-07-31T05:28:35;100721.69;;;23.67;60.08
64886;BME280;51514;52.206;5.114;2023-07-31T05:31:04;100721.44;;;23.69;59.96
64886;BME280;51514;52.206;5.114;2023-07-31T05:33:29;100711.50;;;23.68;59.88
64886;BME280;51514;52.206;5.114;2023-07-31T05:35:56;100718.09;;;23.67;59.94
64886;BME280;51514;52.206;5.114;2023-07-31T05:38:21;100710.91;;;23.65;59.82
64886;BME280;51514;52.206;5.114;2023-07-31T05:40:47;100709.84;;;23.67;59.96
64886;BME280;51514;52.206;5.114;2023-07-31T05:43:12;100705.16;;;23.67;59.75
64886;BME280;51514;52.206;5.114;2023-07-31T05:45:38;100697.16;;;23.65;59.83
64886;BME280;51514;52.206;5.114;2023-07-31T05:48:05;100697.16;;;23.65;60.01
64886;BME280;51514;52.206;5.114;2023-07-31T05:50:30;100695.47;;;23.64;60.07
64886;BME280;51514;52.206;5.114;2023-07-31T05:52:56;100695.47;;;23.64;59.99
64886;BME280;51514;52.206;5.114;2023-07-31T05:55:21;100697.97;;;23.66;59.79
64886;BME280;51514;52.206;5.114;2023-07-31T05:57:46;100697.16;;;23.65;60.03
64886;BME280;51514;52.206;5.114;2023-07-31T06:00:13;100698.22;;;23.64;59.94
64886;BME280;51514;52.206;5.114;2023-07-31T06:02:38;100690.22;;;23.63;59.96
64886;BME280;51514;52.206;5.114;2023-07-31T06:05:04;100696.31;;;23.65;60.03
64886;BME280;51514;52.206;5.114;2023-07-31T06:07:31;100688.28;;;23.63;60.19
64886;BME280;51514;52.206;5.114;2023-07-31T06:09:57;100687.47;;;23.63;60.11
64886;BME280;51514;52.206;5.114;2023-07-31T06:12:27;100680.03;;;23.63;59.86
64886;BME280;51514;52.206;5.114;2023-07-31T06:14:52;100672.84;;;23.62;59.98
64886;BME280;51514;52.206;5.114;2023-07-31T06:17:17;100671.19;;;23.61;59.92
64886;BME280;51514;52.206;5.114;2023-07-31T06:19:43;100675.63;;;23.62;60.10
64886;BME280;51514;52.206;5.114;2023-07-31T06:22:09;100673.94;;;23.61;59.97
64886;BME280;51514;52.206;5.114;2023-07-31T06:24:34;100675.63;;;23.62;59.82
64886;BME280;51514;52.206;5.114;2023-07-31T06:26:59;100677.78;;;23.60;59.99
64886;BME280;51514;52.206;5.114;2023-07-31T06:29:25;100671.19;;;23.61;59.96
64886;BME280;51514;52.206;5.114;2023-07-31T06:31:50;100666.53;;;23.62;60.07
64886;BME280;51514;52.206;5.114;2023-07-31T06:34:15;100670.09;;;23.62;60.10
64886;BME280;51514;52.206;5.114;2023-07-31T06:36:41;100667.34;;;23.62;59.82
64886;BME280;51514;52.206;5.114;2023-07-31T06:39:06;100656.59;;;23.61;59.91
64886;BME280;51514;52.206;5.114;2023-07-31T06:41:32;100651.91;;;23.61;60.08
64886;BME280;51514;52.206;5.114;2023-07-31T06:43:57;100657.41;;;23.61;59.99
64886;BME280;51514;52.206;5.114;2023-07-31T06:46:22;100652.75;;;23.62;60.12
64886;BME280;51514;52.206;5.114;2023-07-31T06:48:48;100650.25;;;23.60;59.76
64886;BME280;51514;52.206;5.114;2023-07-31T06:51:13;100647.50;;;23.60;60.10
64886;BME280;51514;52.206;5.114;2023-07-31T06:53:39;100644.75;;;23.60;59.92
64886;BME280;51514;52.206;5.114;2023-07-31T06:56:04;100649.41;;;23.60;60.03
64886;BME280;51514;52.206;5.114;2023-07-31T06:58:29;100645.56;;;23.61;60.09
64886;BME280;51514;52.206;5.114;2023-07-31T07:00:55;100643.06;;;23.59;60.17
64886;BME280;51514;52.206;5.114;2023-07-31T07:03:20;100638.41;;;23.60;60.20
64886;BME280;51514;52.206;5.114;2023-07-31T07:05:46;100641.16;;;23.60;59.92
64886;BME280;51514;52.206;5.114;2023-07-31T07:08:11;100643.91;;;23.60;60.08
64886;BME280;51514;52.206;5.114;2023-07-31T07:10:37;100645.56;;;23.61;60.45
64886;BME280;51514;52.206;5.114;2023-07-31T07:13:31;100638.56;;;23.53;60.21
64886;BME280;51514;52.206;5.114;2023-07-31T07:15:56;100637.56;;;23.59;59.96
64886;BME280;51514;52.206;5.114;2023-07-31T07:18:22;100648.56;;;23.59;60.04
64886;BME280;51514;52.206;5.114;2023-07-31T07:20:50;100635.88;;;23.58;60.40
64886;BME280;51514;52.206;5.114;2023-07-31T07:23:15;100641.41;;;23.58;60.00
64886;BME280;51514;52.206;5.114;2023-07-31T07:25:41;100629.56;;;23.58;60.06
64886;BME280;51514;52.206;5.114;2023-07-31T07:28:07;100636.72;;;23.59;60.03
64886;BME280;51514;52.206;5.114;2023-07-31T07:30:32;100629.56;;;23.58;60.04
64886;BME280;51514;52.206;5.114;2023-07-31T07:32:57;100635.88;;;23.58;60.31
64886;BME280;51514;52.206;5.114;2023-07-31T07:35:23;100635.88;;;23.58;60.41
64886;BME280;51514;52.206;5.114;2023-07-31T07:37:49;100638.41;;;23.60;60.12
64886;BME280;51514;52.206;5.114;2023-07-31T07:40:17;100639.22;;;23.60;60.29
64886;BME280;51514;52.206;5.114;2023-07-31T07:42:42;100633.72;;;23.60;60.11
64886;BME280;51514;52.206;5.114;2023-07-31T07:45:08;100629.06;;;23.61;60.27
64886;BME280;51514;52.206;5.114;2023-07-31T07:47:38;100627.63;;;23.58;60.03
64886;BME280;51514;52.206;5.114;2023-07-31T07:50:03;100629.06;;;23.61;60.10
64886;BME280;51514;52.206;5.114;2023-07-31T07:52:29;100628.22;;;23.60;60.18
64886;BME280;51514;52.206;5.114;2023-07-31T07:54:55;100632.66;;;23.61;60.16
64886;BME280;51514;52.206;5.114;2023-07-31T07:57:20;100626.31;;;23.61;60.26
64886;BME280;51514;52.206;5.114;2023-07-31T07:59:46;100622.47;;;23.62;59.97
64886;BME280;51514;52.206;5.114;2023-07-31T08:02:11;100633.47;;;23.62;60.02
64886;BME280;51514;52.206;5.114;2023-07-31T08:04:36;100626.06;;;23.62;60.33
64886;BME280;51514;52.206;5.114;2023-07-31T08:07:02;100618.63;;;23.63;60.16
64886;BME280;51514;52.206;5.114;2023-07-31T08:09:28;100626.06;;;23.62;60.26
64886;BME280;51514;52.206;5.114;2023-07-31T08:11:53;100622.22;;;23.63;60.10
64886;BME280;51514;52.206;5.114;2023-07-31T08:14:19;100615.88;;;23.63;60.32
64886;BME280;51514;52.206;5.114;2023-07-31T08:16:45;100611.47;;;23.62;59.86
64886;BME280;51514;52.206;5.114;2023-07-31T08:19:11;100616.72;;;23.63;60.22
64886;BME280;51514;52.206;5.114;2023-07-31T08:21:36;100613.97;;;23.63;60.16
64886;BME280;51514;52.206;5.114;2023-07-31T08:24:01;100602.97;;;23.63;59.72
64886;BME280;51514;52.206;5.114;2023-07-31T08:26:27;100602.97;;;23.63;59.96
64886;BME280;51514;52.206;5.114;2023-07-31T08:28:52;100603.78;;;23.64;60.00
64886;BME280;51514;52.206;5.114;2023-07-31T08:31:18;100598.28;;;23.64;59.85
64886;BME280;51514;52.206;5.114;2023-07-31T08:33:44;100605.47;;;23.65;60.12
64886;BME280;51514;52.206;5.114;2023-07-31T08:36:09;100593.63;;;23.64;60.05
64886;BME280;51514;52.206;5.114;2023-07-31T08:38:35;100601.88;;;23.64;60.36
64886;BME280;51514;52.206;5.114;2023-07-31T08:41:03;100597.19;;;23.65;60.34
64886;BME280;51514;52.206;5.114;2023-07-31T08:43:28;100595.28;;;23.65;60.48
64886;BME280;51514;52.206;5.114;2023-07-31T08:45:55;100606.06;;;23.67;60.03
64886;BME280;51514;52.206;5.114;2023-07-31T08:48:23;100603.53;;;23.65;60.13
64886;BME280;51514;52.206;5.114;2023-07-31T08:50:50;100601.47;;;23.56;60.48
64886;BME280;51514;52.206;5.114;2023-07-31T08:53:16;100596.13;;;23.66;60.11
64886;BME280;51514;52.206;5.114;2023-07-31T08:55:42;100598.63;;;23.68;59.95
64886;BME280;51514;52.206;5.114;2023-07-31T08:58:09;100594.78;;;23.69;60.05
64886;BME280;51514;52.206;5.114;2023-07-31T09:00:38;100595.59;;;23.69;60.07
64886;BME280;51514;52.206;5.114;2023-07-31T09:03:08;100596.44;;;23.70;60.11
64886;BME280;51514;52.206;5.114;2023-07-31T09:05:36;100595.34;;;23.71;60.29
64886;BME280;51514;52.206;5.114;2023-07-31T09:08:04;100589.84;;;23.71;60.18
64886;BME280;51514;52.206;5.114;2023-07-31T09:10:30;100604.19;;;23.73;60.01
64886;BME280;51514;52.206;5.114;2023-07-31T09:12:56;100597.84;;;23.72;59.95
64886;BME280;51514;52.206;5.114;2023-07-31T09:15:23;100594.84;;;23.74;60.09
64886;BME280;51514;52.206;5.114;2023-07-31T09:17:58;100590.94;;;23.70;59.93
64886;BME280;51514;52.206;5.114;2023-07-31T09:20:25;100590.44;;;23.73;60.10
64886;BME280;51514;52.206;5.114;2023-07-31T09:22:51;100588.75;;;23.72;59.97
64886;BME280;51514;52.206;5.114;2023-07-31T09:25:26;100589.28;;;23.69;59.98
64886;BME280;51514;52.206;5.114;2023-07-31T09:27:52;100587.69;;;23.73;60.14
64886;BME280;51514;52.206;5.114;2023-07-31T09:30:18;100581.34;;;23.72;60.05
64886;BME280;51514;52.206;5.114;2023-07-31T09:32:44;100589.59;;;23.72;59.98
64886;BME280;51514;52.206;5.114;2023-07-31T09:35:18;100583.50;;;23.70;59.94
64886;BME280;51514;52.206;5.114;2023-07-31T09:37:48;100586.25;;;23.70;60.03
64886;BME280;51514;52.206;5.114;2023-07-31T09:40:24;100592.44;;;23.60;60.38
64886;BME280;51514;52.206;5.114;2023-07-31T09:42:50;100582.66;;;23.70;60.12
64886;BME280;51514;52.206;5.114;2023-07-31T09:45:15;100587.34;;;23.69;60.08
64886;BME280;51514;52.206;5.114;2023-07-31T09:47:46;100585.69;;;23.68;59.89
64886;BME280;51514;52.206;5.114;2023-07-31T09:50:14;100575.25;;;23.70;60.11
64886;BME280;51514;52.206;5.114;2023-07-31T09:52:40;100586.53;;;23.69;60.22
64886;BME280;51514;52.206;5.114;2023-07-31T09:55:05;100585.41;;;23.70;60.01
64886;BME280;51514;52.206;5.114;2023-07-31T09:57:31;100577.16;;;23.70;60.07
64886;BME280;51514;52.206;5.114;2023-07-31T09:59:58;100576.06;;;23.71;60.17
64886;BME280;51514;52.206;5.114;2023-07-31T10:02:23;100575.00;;;23.72;59.91
64886;BME280;51514;52.206;5.114;2023-07-31T10:04:50;100575.84;;;23.72;60.00
64886;BME280;51514;52.206;5.114;2023-07-31T10:07:17;100582.19;;;23.73;60.09
64886;BME280;51514;52.206;5.114;2023-07-31T10:09:44;100582.19;;;23.73;59.97
64886;BME280;51514;52.206;5.114;2023-07-31T10:12:12;100576.66;;;23.73;60.14
64886;BME280;51514;52.206;5.114;2023-07-31T10:14:39;100578.59;;;23.72;60.15
64886;BME280;51514;52.206;5.114;2023-07-31T10:17:07;100577.50;;;23.73;60.02
64886;BME280;51514;52.206;5.114;2023-07-31T10:19:36;100586.84;;;23.72;60.28
64886;BME280;51514;52.206;5.114;2023-07-31T10:22:03;100577.75;;;23.72;60.00
64886;BME280;51514;52.206;5.114;2023-07-31T10:24:29;100575.00;;;23.72;60.21
64886;BME280;51514;52.206;5.114;2023-07-31T10:26:57;100580.50;;;23.72;60.10
64886;BME280;51514;52.206;5.114;2023-07-31T10:29:24;100582.19;;;23.73;60.01
64886;BME280;51514;52.206;5.114;2023-07-31T10:31:51;100570.06;;;23.74;60.17
64886;BME280;51514;52.206;5.114;2023-07-31T10:34:17;100571.75;;;23.75;60.24
64886;BME280;51514;52.206;5.114;2023-07-31T10:36:43;100565.16;;;23.76;60.32
64886;BME280;51514;52.206;5.114;2023-07-31T10:39:34;100567.81;;;23.71;60.10
64886;BME280;51514;52.206;5.114;2023-07-31T10:42:09;100567.56;;;23.72;60.23
64886;BME280;51514;52.206;5.114;2023-07-31T10:44:35;100574.50;;;23.75;60.30
64886;BME280;51514;52.206;5.114;2023-07-31T10:47:00;100574.50;;;23.75;60.32
64886;BME280;51514;52.206;5.114;2023-07-31T10:49:29;100577.50;;;23.73;60.43
64886;BME280;51514;52.206;5.114;2023-07-31T10:51:56;100583.84;;;23.74;60.27
64886;BME280;51514;52.206;5.114;2023-07-31T10:54:22;100581.09;;;23.74;60.21
64886;BME280;51514;52.206;5.114;2023-07-31T10:56:50;100578.59;;;23.72;60.10
64886;BME280;51514;52.206;5.114;2023-07-31T10:59:26;100564.75;;;23.67;60.12
64886;BME280;51514;52.206;5.114;2023-07-31T11:01:56;100569.50;;;23.72;60.39
64886;BME280;51514;52.206;5.114;2023-07-31T11:04:28;100571.16;;;23.73;60.24
64886;BME280;51514;52.206;5.114;2023-07-31T11:07:00;100569.50;;;23.72;60.20
64886;BME280;51514;52.206;5.114;2023-07-31T11:09:32;100574.16;;;23.71;60.04
64886;BME280;51514;52.206;5.114;2023-07-31T11:12:15;100580.50;;;23.72;60.17
64886;BME280;51514;52.206;5.114;2023-07-31T11:14:55;100569.50;;;23.72;60.19
64886;BME280;51514;52.206;5.114;2023-07-31T11:17:26;100563.50;;;23.75;60.45
64886;BME280;51514;52.206;5.114;2023-07-31T11:19:51;100571.50;;;23.76;60.13
64886;BME280;51514;52.206;5.114;2023-07-31T11:22:17;100569.59;;;23.77;60.44
64886;BME280;51514;52.206;5.114;2023-07-31T11:24:43;100568.50;;;23.78;60.21
64886;BME280;51514;52.206;5.114;2023-07-31T11:27:09;100573.41;;;23.76;60.20
64886;BME280;51514;52.206;5.114;2023-07-31T11:29:37;100561.31;;;23.77;60.23
64886;BME280;51514;52.206;5.114;2023-07-31T11:32:16;100561.81;;;23.74;60.38
64886;BME280;51514;52.206;5.114;2023-07-31T11:34:54;100557.16;;;23.74;60.25
64886;BME280;51514;52.206;5.114;2023-07-31T11:37:20;100559.16;;;23.79;60.48
64886;BME280;51514;52.206;5.114;2023-07-31T11:40:01;100563.50;;;23.75;60.51
64886;BME280;51514;52.206;5.114;2023-07-31T11:42:27;100564.66;;;23.79;60.36
64886;BME280;51514;52.206;5.114;2023-07-31T11:44:52;100557.47;;;23.78;60.37
64886;BME280;51514;52.206;5.114;2023-07-31T11:47:18;100557.47;;;23.78;60.32
64886;BME280;51514;52.206;5.114;2023-07-31T11:49:43;100563.81;;;23.78;60.76
64886;BME280;51514;52.206;5.114;2023-07-31T11:52:09;100557.47;;;23.78;60.32
64886;BME280;51514;52.206;5.114;2023-07-31T11:54:35;100553.66;;;23.79;60.47
64886;BME280;51514;52.206;5.114;2023-07-31T11:57:01;100556.97;;;23.81;60.18
64886;BME280;51514;52.206;5.114;2023-07-31T11:59:27;100564.38;;;23.80;60.39
64886;BME280;51514;52.206;5.114;2023-07-31T12:01:53;100553.38;;;23.80;60.46
64886;BME280;51514;52.206;5.114;2023-07-31T12:04:19;100562.47;;;23.81;60.21
64886;BME280;51514;52.206;5.114;2023-07-31T12:06:48;100569.06;;;23.80;60.36
64886;BME280;51514;52.206;5.114;2023-07-31T12:09:19;100568.50;;;23.78;60.42
64886;BME280;51514;52.206;5.114;2023-07-31T12:11:47;100566.31;;;23.80;60.41
64886;BME280;51514;52.206;5.114;2023-07-31T12:14:21;100567.66;;;23.77;60.02
64886;BME280;51514;52.206;5.114;2023-07-31T12:24:02;100556.56;;;23.72;60.28
64886;BME280;51514;52.206;5.114;2023-07-31T12:30:33;100531.47;;;23.69;60.64
64886;BME280;51514;52.206;5.114;2023-07-31T12:33:22;100524.69;;;23.76;60.51
64886;BME280;51514;52.206;5.114;2023-07-31T12:35:50;100520.47;;;23.69;60.51
64886;BME280;51514;52.206;5.114;2023-07-31T12:38:19;100532.44;;;23.79;60.43
64886;BME280;51514;52.206;5.114;2023-07-31T12:41:06;100528.88;;;23.79;60.45
64886;BME280;51514;52.206;5.114;2023-07-31T12:43:35;100530.50;;;23.80;60.46
64886;BME280;51514;52.206;5.114;2023-07-31T12:46:01;100527.75;;;23.80;60.49
64886;BME280;51514;52.206;5.114;2023-07-31T12:48:26;100518.41;;;23.81;60.22
64886;BME280;51514;52.206;5.114;2023-07-31T12:50:52;100522.00;;;23.81;60.36
64886;BME280;51514;52.206;5.114;2023-07-31T12:53:17;100519.25;;;23.81;60.42
64886;BME280;51514;52.206;5.114;2023-07-31T12:55:43;100510.97;;;23.81;60.51
64886;BME280;51514;52.206;5.114;2023-07-31T12:58:09;100512.91;;;23.81;60.62
64886;BME280;51514;52.206;5.114;2023-07-31T13:00:34;100509.31;;;23.80;60.66
64886;BME280;51514;52.206;5.114;2023-07-31T13:03:00;100527.75;;;23.80;60.64
64886;BME280;51514;52.206;5.114;2023-07-31T13:05:27;100522.25;;;23.80;60.61